createdAt,value
2023-02-06T00:00:50.606Z,203.16
2023-02-06T00:01:50.483Z,203.19
2023-02-06T00:02:50.468Z,204.10
2023-02-06T00:03:50.429Z,204.85
2023-02-06T00:04:50.533Z,203.05
2023-02-06T00:05:50.423Z,202.68
2023-02-06T00:06:51.128Z,203.05
2023-02-06T00:07:50.324Z,200.12
2023-02-06T00:08:50.283Z,200.90
2023-02-06T00:10:50.245Z,202.98
2023-02-06T00:11:50.174Z,201.42
2023-02-06T00:12:50.199Z,201.93
2023-02-06T00:13:50.151Z,203.29
2023-02-06T00:14:50.089Z,204.07
2023-02-06T00:15:50.086Z,201.10
2023-02-06T00:16:50.058Z,201.27
2023-02-06T00:17:50.642Z,199.94
2023-02-06T00:18:50.104Z,201.56
2023-02-06T00:19:50.054Z,202.31
2023-02-06T00:20:50.050Z,200.66
2023-02-06T00:21:49.889Z,202.22
2023-02-06T00:22:49.880Z,199.59
2023-02-06T00:23:49.837Z,199.88
2023-02-06T00:24:49.802Z,201.92
2023-02-06T00:25:49.790Z,202.64
2023-02-06T00:26:49.761Z,202.07
2023-02-06T00:27:49.735Z,201.71
2023-02-06T00:28:49.710Z,200.49
2023-02-06T00:29:49.702Z,198.82
2023-02-06T00:30:49.792Z,203.39
2023-02-06T00:31:49.694Z,200.47
2023-02-06T00:32:49.665Z,198.61
2023-02-06T00:33:49.596Z,200.07
2023-02-06T00:34:49.566Z,201.60
2023-02-06T00:35:49.537Z,199.53
2023-02-06T00:36:49.510Z,198.92
2023-02-06T00:37:49.490Z,200.53
2023-02-06T00:38:49.451Z,200.10
2023-02-06T00:39:49.461Z,200.80
2023-02-06T00:40:49.400Z,199.99
2023-02-06T00:41:49.370Z,197.65
2023-02-06T00:42:49.347Z,195.71
2023-02-06T00:43:49.318Z,200.08
2023-02-06T00:44:49.325Z,199.17
2023-02-06T00:45:49.268Z,198.20
2023-02-06T00:46:49.246Z,198.09
2023-02-06T00:47:49.215Z,199.86
2023-02-06T00:48:49.187Z,199.61
2023-02-06T00:49:49.182Z,201.27
2023-02-06T00:50:49.156Z,200.63
2023-02-06T00:51:49.152Z,199.67
2023-02-06T00:52:49.166Z,197.76
2023-02-06T00:53:51.058Z,200.66
2023-02-06T00:54:49.098Z,198.42
2023-02-06T00:55:49.064Z,201.76
2023-02-06T00:56:49.056Z,202.38
2023-02-06T00:57:49.006Z,200.32
2023-02-06T00:58:49.001Z,198.81
2023-02-06T00:59:48.986Z,197.86
2023-02-06T01:00:49.652Z,197.90
2023-02-06T01:01:48.962Z,200.49
2023-02-06T01:02:48.910Z,199.96
2023-02-06T01:03:48.905Z,201.18
2023-02-06T01:04:48.833Z,201.07
2023-02-06T01:05:48.831Z,202.24
2023-02-06T01:06:48.804Z,199.90
2023-02-06T01:07:48.797Z,200.02
2023-02-06T01:08:48.774Z,198.81
2023-02-06T01:09:48.805Z,197.85
2023-02-06T01:10:48.839Z,200.20
2023-02-06T01:11:48.892Z,200.15
2023-02-06T01:12:48.906Z,200.85
2023-02-06T01:13:48.970Z,199.88
2023-02-06T01:14:49.004Z,198.12
2023-02-06T01:15:51.070Z,197.83
2023-02-06T01:16:49.019Z,199.63
2023-02-06T01:17:48.983Z,201.00
2023-02-06T01:18:48.956Z,197.85
2023-02-06T01:19:48.991Z,201.49
2023-02-06T01:20:49.017Z,200.11
2023-02-06T01:21:49.063Z,200.65
2023-02-06T01:22:49.084Z,200.22
2023-02-06T01:23:49.122Z,199.77
2023-02-06T01:24:49.177Z,201.12
2023-02-06T01:25:49.193Z,198.63
2023-02-06T01:26:49.237Z,199.28
2023-02-06T01:27:49.294Z,199.89
2023-02-06T01:28:49.319Z,199.96
2023-02-06T01:29:49.375Z,197.46
2023-02-06T01:30:49.454Z,197.43
2023-02-06T01:31:49.443Z,197.84
2023-02-06T01:32:49.450Z,199.16
2023-02-06T01:33:49.505Z,197.74
2023-02-06T01:34:49.528Z,199.31
2023-02-06T01:35:49.551Z,197.91
2023-02-06T01:36:49.610Z,197.46
2023-02-06T01:37:49.624Z,197.53
2023-02-06T01:38:49.665Z,198.99
2023-02-06T01:39:49.681Z,200.16
2023-02-06T01:40:49.714Z,199.57
2023-02-06T01:41:49.801Z,199.33
2023-02-06T01:42:49.769Z,197.50
2023-02-06T01:43:49.806Z,200.16
2023-02-06T01:44:49.843Z,197.12
2023-02-06T01:45:49.875Z,196.71
2023-02-06T01:46:49.962Z,197.95
2023-02-06T01:47:49.969Z,198.36
2023-02-06T01:48:50.000Z,198.53
2023-02-06T01:49:50.001Z,197.57
2023-02-06T01:50:50.020Z,200.64
2023-02-06T01:51:50.086Z,199.15
2023-02-06T01:52:50.132Z,197.93
2023-02-06T01:53:50.138Z,197.45
2023-02-06T01:54:50.151Z,195.33
2023-02-06T01:55:50.197Z,198.12
2023-02-06T01:56:50.366Z,197.78
2023-02-06T01:57:50.419Z,197.45
2023-02-06T01:58:50.399Z,198.81
2023-02-06T01:59:50.422Z,201.18
2023-02-06T02:00:50.606Z,196.94
2023-02-06T02:01:50.533Z,196.13
2023-02-06T02:03:50.466Z,199.72
2023-02-06T02:04:50.521Z,196.69
2023-02-06T02:05:50.471Z,195.71
2023-02-06T02:06:50.341Z,197.80
2023-02-06T02:07:50.680Z,199.07
2023-02-06T02:08:50.282Z,196.82
2023-02-06T02:09:50.228Z,196.61
2023-02-06T02:10:50.251Z,197.76
2023-02-06T02:11:50.201Z,198.53
2023-02-06T02:12:50.181Z,198.87
2023-02-06T02:13:50.175Z,196.75
2023-02-06T02:14:50.110Z,196.73
2023-02-06T02:15:50.129Z,198.27
2023-02-06T02:16:50.148Z,199.07
2023-02-06T02:17:50.219Z,196.88
2023-02-06T02:18:50.236Z,197.63
2023-02-06T02:19:50.264Z,198.35
2023-02-06T02:20:50.279Z,197.05
2023-02-06T02:21:50.312Z,198.56
2023-02-06T02:22:50.335Z,195.88
2023-02-06T02:23:50.446Z,198.25
2023-02-06T02:25:50.391Z,198.34
2023-02-06T02:26:50.453Z,197.34
2023-02-06T02:27:50.396Z,195.56
2023-02-06T02:28:50.478Z,196.39
2023-02-06T02:29:50.312Z,197.09
2023-02-06T02:30:50.305Z,196.42
2023-02-06T02:31:50.279Z,198.66
2023-02-06T02:32:50.282Z,198.59
2023-02-06T02:33:50.275Z,196.94
2023-02-06T02:34:50.313Z,197.96
2023-02-06T02:35:50.350Z,195.50
2023-02-06T02:36:50.376Z,195.95
2023-02-06T02:37:50.396Z,197.54
2023-02-06T02:38:50.422Z,196.15
2023-02-06T02:39:50.446Z,197.62
2023-02-06T02:40:50.612Z,198.73
2023-02-06T02:41:50.502Z,196.51
2023-02-06T02:42:50.670Z,197.97
2023-02-06T02:43:50.639Z,196.00
2023-02-06T02:44:51.186Z,196.26
2023-02-06T02:45:50.735Z,197.49
2023-02-06T02:46:50.549Z,196.36
2023-02-06T02:47:50.492Z,195.61
2023-02-06T02:48:50.456Z,195.83
2023-02-06T02:49:50.444Z,199.45
2023-02-06T02:50:50.538Z,196.01
2023-02-06T02:51:50.516Z,193.94
2023-02-06T02:52:50.726Z,190.65
2023-02-06T02:53:50.708Z,189.29
2023-02-06T02:54:50.715Z,183.08
2023-02-06T02:55:50.742Z,174.90
2023-02-06T02:57:50.691Z,151.92
2023-02-06T02:58:51.188Z,144.99
2023-02-06T02:59:51.183Z,133.79
2023-02-06T03:00:50.737Z,120.76
2023-02-06T03:01:50.753Z,113.41
2023-02-06T03:02:50.572Z,106.02
2023-02-06T03:03:50.533Z,103.25
2023-02-06T03:04:50.558Z,99.11
2023-02-06T03:05:50.532Z,93.74
2023-02-06T03:06:50.555Z,85.46
2023-02-06T03:07:50.572Z,85.60
2023-02-06T03:08:50.633Z,66.54
2023-02-06T03:09:50.862Z,65.40
2023-02-06T03:10:50.838Z,60.70
2023-02-06T03:11:50.906Z,51.78
2023-02-06T03:13:50.934Z,64.77
2023-02-06T03:15:50.773Z,50.91
2023-02-06T03:16:50.684Z,40.24
2023-02-06T03:17:50.785Z,42.66
2023-02-06T03:18:50.646Z,49.47
2023-02-06T03:19:50.588Z,50.78
2023-02-06T03:20:50.557Z,45.52
2023-02-06T03:21:50.599Z,40.91
2023-02-06T03:22:50.624Z,34.54
2023-02-06T03:23:50.719Z,36.77
2023-02-06T03:24:50.756Z,45.00
2023-02-06T03:25:50.782Z,27.80
2023-02-06T03:26:50.845Z,29.77
2023-02-06T04:44:51.010Z,26.63
2023-02-06T04:55:51.269Z,45.53
2023-02-06T04:56:51.223Z,21.49
2023-02-06T04:57:51.272Z,37.25
2023-02-06T04:59:52.230Z,46.80
2023-02-06T05:00:51.751Z,47.02
2023-02-06T05:01:51.281Z,44.65
2023-02-06T05:02:51.416Z,36.39
2023-02-06T05:04:51.405Z,42.26
2023-02-06T05:05:51.198Z,32.25
2023-02-06T05:06:51.157Z,38.70
2023-02-06T05:07:51.236Z,34.94
2023-02-06T05:08:51.229Z,32.95
2023-02-06T05:09:52.230Z,47.38
2023-02-06T05:11:51.318Z,39.10
2023-02-06T05:12:51.363Z,47.64
2023-02-06T05:14:51.137Z,42.10
2023-02-06T05:15:51.294Z,42.01
2023-02-06T05:16:51.157Z,39.55
2023-02-06T05:17:51.143Z,33.68
2023-02-06T05:18:51.747Z,38.53
2023-02-06T05:19:51.164Z,45.61
2023-02-06T05:20:51.185Z,36.13
2023-02-06T05:21:51.151Z,35.47
2023-02-06T05:22:51.071Z,38.50
2023-02-06T05:23:51.070Z,39.38
2023-02-06T05:24:51.158Z,35.16
2023-02-06T05:25:51.197Z,48.08
2023-02-06T05:26:51.175Z,36.71
2023-02-06T05:27:51.361Z,43.89
2023-02-06T05:28:51.348Z,44.79
2023-02-06T05:29:51.286Z,40.42
2023-02-06T05:30:51.794Z,41.78
2023-02-06T05:31:51.365Z,44.27
2023-02-06T05:32:52.255Z,41.29
2023-02-06T05:33:52.773Z,49.03
2023-02-06T05:34:51.382Z,51.26
2023-02-06T05:35:51.323Z,52.18
2023-02-06T05:36:51.390Z,49.48
2023-02-06T05:37:51.316Z,46.64
2023-02-06T05:38:51.343Z,42.64
2023-02-06T05:39:51.328Z,55.84
2023-02-06T05:40:51.342Z,51.76
2023-02-06T05:41:51.294Z,48.68
2023-02-06T05:42:51.393Z,53.08
2023-02-06T05:43:52.230Z,47.75
2023-02-06T05:44:51.454Z,44.63
2023-02-06T05:45:51.323Z,49.72
2023-02-06T05:46:51.367Z,50.15
2023-02-06T05:47:51.240Z,40.96
2023-02-06T05:48:51.227Z,54.38
2023-02-06T05:49:51.219Z,44.22
2023-02-06T05:50:51.316Z,48.39
2023-02-06T05:51:51.555Z,36.81
2023-02-06T05:52:52.263Z,54.31
2023-02-06T05:53:51.429Z,41.47
2023-02-06T05:54:51.276Z,46.44
2023-02-06T05:55:51.385Z,57.60
2023-02-06T05:56:51.236Z,51.84
2023-02-06T05:57:51.211Z,59.99
2023-02-06T05:58:51.253Z,62.33
2023-02-06T05:59:51.289Z,55.67
2023-02-06T06:00:51.571Z,54.27
2023-02-06T06:01:51.430Z,50.64
2023-02-06T06:02:51.410Z,51.21
2023-02-06T06:03:51.552Z,53.12
2023-02-06T06:04:51.556Z,58.13
2023-02-06T06:05:51.546Z,53.13
2023-02-06T06:06:51.567Z,51.06
2023-02-06T06:07:51.546Z,55.69
2023-02-06T06:08:51.575Z,52.34
2023-02-06T06:09:51.613Z,56.90
2023-02-06T06:10:51.652Z,56.47
2023-02-06T06:11:51.728Z,61.98
2023-02-06T06:12:51.756Z,64.31
2023-02-06T06:13:51.758Z,58.12
2023-02-06T06:14:51.812Z,50.81
2023-02-06T06:15:51.960Z,61.02
2023-02-06T06:16:51.865Z,63.12
2023-02-06T06:17:51.906Z,93.51
2023-02-06T06:18:51.918Z,98.82
2023-02-06T06:19:51.994Z,116.93
2023-02-06T06:20:52.000Z,124.86
2023-02-06T06:21:52.049Z,140.36
2023-02-06T06:22:52.093Z,151.75
2023-02-06T06:23:52.116Z,162.11
2023-02-06T06:24:52.155Z,164.87
2023-02-06T06:25:52.236Z,177.56
2023-02-06T06:26:52.218Z,183.10
2023-02-06T06:27:52.298Z,186.43
2023-02-06T06:28:52.302Z,191.39
2023-02-06T06:29:52.335Z,189.84
2023-02-06T06:30:52.415Z,144.22
2023-02-06T06:31:52.470Z,113.05
2023-02-06T09:52:50.736Z,218.50
2023-02-06T09:58:50.867Z,223.56
2023-02-06T09:59:50.922Z,231.91
2023-02-06T10:10:50.681Z,221.15
2023-02-06T10:19:50.463Z,225.39
2023-02-06T10:26:50.243Z,227.59
2023-02-06T10:27:50.286Z,224.77
2023-02-06T10:28:50.242Z,222.17
2023-02-06T10:34:49.988Z,208.71
2023-02-06T10:35:49.954Z,202.37
2023-02-06T10:36:49.932Z,207.99
2023-02-06T10:38:49.845Z,217.19
2023-02-06T10:39:49.779Z,214.91
2023-02-06T10:40:49.844Z,216.94
2023-02-06T10:42:49.857Z,215.56
2023-02-06T10:43:49.726Z,227.04
2023-02-06T10:44:51.524Z,228.99
2023-02-06T10:45:49.545Z,237.19
2023-02-06T10:46:49.602Z,235.46
2023-02-06T10:47:49.576Z,236.59
2023-02-06T10:48:49.457Z,236.25
2023-02-06T10:49:49.408Z,236.15
2023-02-06T10:50:49.366Z,230.72
2023-02-06T10:51:49.356Z,233.06
2023-02-06T10:52:49.323Z,227.50
2023-02-06T10:53:49.260Z,223.62
2023-02-06T10:54:49.229Z,217.24
2023-02-06T10:55:49.512Z,220.89
2023-02-06T10:56:49.188Z,214.65
2023-02-06T10:57:49.204Z,205.60
2023-02-06T10:58:49.119Z,203.86
2023-02-06T10:59:49.089Z,207.61
2023-02-06T11:00:49.097Z,207.99
2023-02-06T11:01:49.072Z,206.08
2023-02-06T11:02:52.798Z,200.64
2023-02-06T11:04:49.090Z,201.18
2023-02-06T11:05:48.884Z,200.05
2023-02-06T11:06:48.840Z,199.18
2023-02-06T11:07:48.936Z,199.52
2023-02-06T11:08:48.778Z,194.83
2023-02-06T11:09:48.741Z,187.40
2023-02-06T11:10:48.706Z,187.85
2023-02-06T11:11:49.906Z,183.77
2023-02-06T11:12:48.657Z,177.07
2023-02-06T11:13:48.778Z,184.53
2023-02-06T11:14:48.769Z,186.22
2023-02-06T11:15:48.651Z,179.68
2023-02-06T11:16:48.866Z,178.98
2023-02-06T11:17:48.656Z,183.50
2023-02-06T11:18:48.490Z,182.35
2023-02-06T11:19:48.493Z,180.92
2023-02-06T11:20:48.462Z,181.44
2023-02-06T11:21:48.481Z,186.15
2023-02-06T11:22:53.148Z,181.36
2023-02-06T11:23:49.344Z,179.54
2023-02-06T11:24:48.288Z,181.43
2023-02-06T11:25:48.434Z,181.47
2023-02-06T11:26:48.270Z,176.06
2023-02-06T11:27:48.274Z,172.73
2023-02-06T11:28:48.207Z,175.51
2023-02-06T11:29:49.908Z,171.82
2023-02-06T11:30:48.155Z,178.38
2023-02-06T11:31:48.120Z,182.11
2023-02-06T11:33:02.661Z,183.91
2023-02-06T11:33:49.004Z,181.91
2023-02-06T11:34:48.111Z,185.34
2023-02-06T11:35:48.023Z,184.10
2023-02-06T11:36:48.015Z,184.29
2023-02-06T11:37:47.930Z,193.30
2023-02-06T11:38:47.870Z,208.51
2023-02-06T11:40:47.838Z,254.20
2023-02-06T11:42:47.895Z,249.54
2023-02-06T11:45:48.381Z,246.67
2023-02-06T12:05:47.924Z,112.96
2023-02-06T13:07:50.060Z,223.05
2023-02-06T13:22:44.443Z,209.09
2023-02-06T13:45:44.545Z,225.49
2023-02-06T14:00:43.910Z,232.80
2023-02-06T14:10:43.513Z,236.73
2023-02-06T14:24:43.657Z,241.87
2023-02-06T14:56:42.827Z,239.94
2023-02-06T14:57:42.744Z,239.31
2023-02-06T14:58:42.714Z,238.53
2023-02-06T14:59:42.721Z,240.19
2023-02-06T15:00:42.689Z,240.36
2023-02-06T15:01:42.631Z,240.20
2023-02-06T15:02:42.580Z,240.07
2023-02-06T15:03:42.529Z,238.80
2023-02-06T15:04:42.499Z,238.13
2023-02-06T15:05:42.443Z,239.39
2023-02-06T15:06:42.395Z,239.20
2023-02-06T15:07:42.370Z,240.78
2023-02-06T15:08:42.326Z,239.30
2023-02-06T15:09:42.269Z,239.63
2023-02-06T15:10:42.480Z,238.26
2023-02-06T15:11:42.186Z,238.93
2023-02-06T15:12:42.158Z,240.69
2023-02-06T15:13:42.136Z,240.53
2023-02-06T15:14:42.095Z,238.49
2023-02-06T15:15:42.450Z,240.25
2023-02-06T15:16:41.975Z,237.97
2023-02-06T15:17:41.950Z,237.81
2023-02-06T15:18:41.915Z,236.72
2023-02-06T15:19:41.873Z,237.99
2023-02-06T15:20:41.844Z,239.66
2023-02-06T15:21:41.771Z,239.19
2023-02-06T15:22:41.736Z,238.67
2023-02-06T15:23:42.461Z,237.67
2023-02-06T15:24:42.112Z,239.77
2023-02-06T15:25:43.665Z,239.18
2023-02-06T15:26:41.603Z,241.52
2023-02-06T15:27:41.616Z,239.70
2023-02-06T15:28:41.527Z,237.43
2023-02-06T15:29:41.478Z,237.70
2023-02-06T15:30:41.435Z,238.69
2023-02-06T15:31:41.460Z,238.07
2023-02-06T15:32:41.394Z,238.18
2023-02-06T15:33:41.313Z,238.25
2023-02-06T15:34:41.299Z,238.54
2023-02-06T15:35:41.264Z,238.56
2023-02-06T15:36:42.003Z,238.52
2023-02-06T15:37:41.117Z,239.33
2023-02-06T15:38:41.097Z,238.00
2023-02-06T15:39:41.063Z,238.71
2023-02-06T15:40:41.034Z,237.61
2023-02-06T15:41:40.988Z,239.28
2023-02-06T15:42:40.927Z,237.34
2023-02-06T15:43:40.899Z,235.94
2023-02-06T15:44:40.892Z,238.10
2023-02-06T15:45:40.822Z,237.89
2023-02-06T15:46:40.784Z,238.02
2023-02-06T15:47:40.720Z,238.33
2023-02-06T15:48:43.276Z,237.27
2023-02-06T15:49:40.628Z,239.10
2023-02-06T15:50:40.585Z,237.50
2023-02-06T15:51:40.568Z,236.40
2023-02-06T15:52:40.502Z,237.60
2023-02-06T15:53:40.508Z,238.17
2023-02-06T15:54:40.429Z,236.53
2023-02-06T15:55:40.420Z,236.32
2023-02-06T15:56:40.364Z,235.68
2023-02-06T15:57:40.348Z,236.65
2023-02-06T15:58:40.297Z,237.37
2023-02-06T15:59:40.237Z,235.69
2023-02-06T16:00:40.288Z,235.45
2023-02-06T16:01:40.157Z,235.09
2023-02-06T16:02:40.089Z,238.38
2023-02-06T16:03:40.052Z,237.24
2023-02-06T16:04:40.000Z,237.25
2023-02-06T16:05:40.000Z,236.39
2023-02-06T16:06:39.907Z,235.92
2023-02-06T16:07:39.883Z,236.32
2023-02-06T16:08:39.815Z,235.36
2023-02-06T16:09:39.785Z,236.10
2023-02-06T16:10:39.845Z,236.25
2023-02-06T16:11:39.699Z,236.45
2023-02-06T16:12:39.659Z,235.80
2023-02-06T16:13:39.609Z,235.35
2023-02-06T16:14:39.575Z,234.89
2023-02-06T16:15:39.530Z,235.13
2023-02-06T16:16:39.540Z,234.67
2023-02-06T16:17:39.458Z,234.93
2023-02-06T16:18:39.411Z,235.10
2023-02-06T16:19:39.365Z,234.26
2023-02-06T16:20:39.878Z,232.49
2023-02-06T16:21:39.270Z,233.90
2023-02-06T16:22:39.224Z,233.61
2023-02-06T16:23:39.163Z,233.59
2023-02-06T16:24:39.131Z,234.19
2023-02-06T16:25:39.111Z,233.55
2023-02-06T16:26:39.074Z,233.86
2023-02-06T16:27:39.023Z,233.55
2023-02-06T16:28:38.958Z,232.16
2023-02-06T16:29:38.958Z,232.33
2023-02-06T16:30:39.283Z,233.13
2023-02-06T16:31:39.013Z,232.69
2023-02-06T16:32:38.851Z,231.33
2023-02-06T16:33:38.792Z,233.52
2023-02-06T16:34:38.752Z,233.06
2023-02-06T16:35:39.476Z,230.43
2023-02-06T16:36:38.681Z,233.23
2023-02-06T16:37:38.629Z,231.49
2023-02-06T16:38:38.602Z,234.64
2023-02-06T16:39:38.573Z,231.97
2023-02-06T16:40:39.470Z,231.72
2023-02-06T16:41:38.505Z,234.37
2023-02-06T16:42:38.472Z,233.21
2023-02-06T16:43:38.429Z,231.44
2023-02-06T16:44:44.768Z,232.60
2023-02-06T16:45:39.326Z,232.72
2023-02-06T16:46:38.298Z,232.86
2023-02-06T16:47:38.284Z,233.38
2023-02-06T16:48:38.234Z,230.70
2023-02-06T16:49:38.167Z,232.63
2023-02-06T16:50:38.344Z,231.70
2023-02-06T16:51:38.072Z,231.17
2023-02-06T16:52:38.044Z,232.73
2023-02-06T16:53:38.011Z,232.50
2023-02-06T16:54:37.939Z,231.50
2023-02-06T16:55:37.904Z,232.71
2023-02-06T16:56:37.868Z,231.99
2023-02-06T16:57:37.812Z,231.33
2023-02-06T16:58:37.761Z,231.95
2023-02-06T16:59:37.831Z,231.34
2023-02-06T17:00:37.969Z,230.29
2023-02-06T17:01:37.641Z,232.31
2023-02-06T17:02:37.621Z,231.92
2023-02-06T17:03:37.641Z,230.50
2023-02-06T17:04:37.534Z,231.25
2023-02-06T17:05:38.008Z,232.01
2023-02-06T17:06:37.390Z,231.91
2023-02-06T17:07:37.346Z,231.18
2023-02-06T17:08:37.304Z,230.98
2023-02-06T17:09:37.248Z,232.17
2023-02-06T17:10:37.501Z,228.00
2023-02-06T17:11:37.213Z,230.85
2023-02-06T17:12:37.141Z,227.35
2023-02-06T17:13:37.090Z,230.12
2023-02-06T17:14:37.038Z,229.39
2023-02-06T17:15:37.020Z,229.70
2023-02-06T17:16:36.970Z,231.16
2023-02-06T17:17:36.934Z,228.40
2023-02-06T17:18:36.885Z,231.28
2023-02-06T17:19:36.844Z,228.85
2023-02-06T17:20:37.153Z,226.48
2023-02-06T17:21:36.726Z,230.15
2023-02-06T17:22:36.699Z,228.51
2023-02-06T17:23:37.021Z,229.40
2023-02-06T17:24:36.612Z,227.33
2023-02-06T17:25:36.823Z,228.71
2023-02-06T17:26:36.525Z,229.01
2023-02-06T17:27:36.468Z,228.88
2023-02-06T17:28:36.458Z,227.53
2023-02-06T17:29:36.401Z,230.03
2023-02-06T17:30:36.677Z,228.47
2023-02-06T17:31:36.341Z,229.86
2023-02-06T17:32:36.989Z,230.02
2023-02-06T17:33:36.274Z,228.90
2023-02-06T17:34:36.229Z,229.37
2023-02-06T17:35:36.175Z,229.76
2023-02-06T17:36:36.137Z,227.48
2023-02-06T17:37:36.125Z,227.31
2023-02-06T17:38:36.125Z,227.49
2023-02-06T17:39:36.041Z,227.89
2023-02-06T17:40:36.468Z,227.98
2023-02-06T17:41:36.489Z,228.04
2023-02-06T17:42:35.906Z,228.54
2023-02-06T17:43:35.877Z,228.15
2023-02-06T17:44:35.825Z,227.16
2023-02-06T17:45:36.095Z,226.12
2023-02-06T17:46:35.821Z,228.28
2023-02-06T17:47:35.733Z,226.73
2023-02-06T17:48:36.661Z,226.16
2023-02-06T17:49:35.613Z,226.01
2023-02-06T17:50:35.889Z,226.38
2023-02-06T17:51:35.533Z,228.10
2023-02-06T17:52:35.478Z,225.82
2023-02-06T17:53:35.437Z,226.63
2023-02-06T17:54:35.397Z,226.80
2023-02-06T17:55:35.374Z,226.23
2023-02-06T17:56:35.317Z,224.73
2023-02-06T17:57:35.284Z,226.45
2023-02-06T17:58:35.281Z,226.57
2023-02-06T17:59:35.200Z,226.48
2023-02-06T18:00:35.476Z,227.32
2023-02-06T18:01:35.145Z,227.04
2023-02-06T18:02:35.146Z,226.55
2023-02-06T18:03:35.502Z,226.69
2023-02-06T18:04:35.040Z,224.10
2023-02-06T18:05:35.189Z,227.42
2023-02-06T18:06:34.942Z,226.12
2023-02-06T18:07:34.900Z,228.13
2023-02-06T18:08:35.023Z,224.79
2023-02-06T18:09:34.837Z,226.67
2023-02-06T18:10:35.205Z,226.48
2023-02-06T18:11:34.762Z,226.62
2023-02-06T18:12:34.735Z,226.62
2023-02-06T18:13:34.688Z,225.97
2023-02-06T18:14:34.648Z,224.41
2023-02-06T18:15:34.582Z,226.34
2023-02-06T18:16:34.562Z,226.63
2023-02-06T18:17:34.512Z,226.98
2023-02-06T18:18:34.484Z,224.16
2023-02-06T18:19:34.531Z,224.27
2023-02-06T18:20:34.466Z,225.30
2023-02-06T18:21:35.040Z,223.76
2023-02-06T18:22:34.334Z,224.20
2023-02-06T18:23:34.294Z,225.98
2023-02-06T18:24:34.234Z,223.89
2023-02-06T18:25:34.375Z,227.04
2023-02-06T18:26:34.160Z,224.06
2023-02-06T18:27:34.130Z,224.50
2023-02-06T18:28:35.055Z,224.99
2023-02-06T18:29:47.515Z,224.92
2023-02-06T18:30:35.307Z,225.10
2023-02-06T18:31:34.033Z,225.04
2023-02-06T18:32:33.938Z,224.15
2023-02-06T18:33:33.904Z,224.51
2023-02-06T18:34:33.851Z,225.82
2023-02-06T18:35:33.793Z,222.70
2023-02-06T18:36:33.754Z,223.39
2023-02-06T18:37:33.715Z,224.14
2023-02-06T18:38:33.682Z,223.94
2023-02-06T18:39:33.643Z,222.30
2023-02-06T18:40:33.588Z,223.77
2023-02-06T18:41:33.557Z,224.81
2023-02-06T18:42:33.508Z,223.90
2023-02-06T18:43:33.503Z,223.03
2023-02-06T18:44:33.434Z,225.08
2023-02-06T18:45:33.418Z,223.12
2023-02-06T18:46:33.397Z,222.26
2023-02-06T18:47:33.319Z,223.71
2023-02-06T18:48:33.320Z,222.96
2023-02-06T18:49:33.224Z,223.86
2023-02-06T18:50:33.186Z,220.93
2023-02-06T18:51:33.154Z,222.41
2023-02-06T18:52:33.107Z,221.13
2023-02-06T18:53:33.132Z,224.79
2023-02-06T18:54:33.023Z,221.30
2023-02-06T18:55:33.031Z,223.08
2023-02-06T18:56:32.937Z,219.11
2023-02-06T18:57:32.891Z,222.56
2023-02-06T18:58:32.821Z,222.50
2023-02-06T18:59:32.825Z,223.05
2023-02-06T19:00:32.768Z,221.68
2023-02-06T19:01:32.742Z,221.93
2023-02-06T19:02:32.694Z,221.46
2023-02-06T19:03:32.650Z,220.59
2023-02-06T19:04:32.611Z,220.99
2023-02-06T19:05:32.567Z,224.97
2023-02-06T19:06:32.544Z,221.80
2023-02-06T19:07:32.498Z,219.90
2023-02-06T19:08:32.464Z,223.42
2023-02-06T19:09:32.441Z,220.11
2023-02-06T19:10:32.370Z,219.91
2023-02-06T19:11:32.351Z,220.24
2023-02-06T19:12:32.299Z,220.12
2023-02-06T19:13:32.269Z,219.99
2023-02-06T19:14:32.249Z,221.63
2023-02-06T19:15:32.181Z,220.95
2023-02-06T19:16:32.160Z,220.24
2023-02-06T19:17:32.090Z,219.61
2023-02-06T19:18:38.947Z,220.01
2023-02-06T19:19:33.000Z,220.15
2023-02-06T19:20:31.946Z,220.25
2023-02-06T19:21:31.910Z,220.56
2023-02-06T19:22:32.540Z,220.74
2023-02-06T19:23:31.810Z,222.05
2023-02-06T19:24:31.812Z,220.36
2023-02-06T19:25:31.732Z,222.45
2023-02-06T19:26:31.681Z,218.65
2023-02-06T19:27:31.623Z,218.75
2023-02-06T19:28:32.557Z,219.25
2023-02-06T19:29:36.195Z,220.36
2023-02-06T19:30:32.577Z,220.47
2023-02-06T19:31:31.474Z,220.39
2023-02-06T19:32:31.422Z,220.37
2023-02-06T19:33:31.375Z,220.76
2023-02-06T19:34:33.472Z,219.66
2023-02-06T19:35:31.299Z,224.36
2023-02-06T19:36:31.283Z,221.42
2023-02-06T19:37:31.199Z,218.12
2023-02-06T19:38:31.145Z,218.54
2023-02-06T19:39:31.112Z,221.21
2023-02-06T19:40:31.094Z,221.02
2023-02-06T19:41:31.047Z,218.46
2023-02-06T19:42:31.026Z,219.62
2023-02-06T19:43:30.985Z,219.00
2023-02-06T19:44:30.914Z,220.12
2023-02-06T19:45:30.886Z,219.95
2023-02-06T19:46:30.818Z,218.30
2023-02-06T19:47:30.789Z,221.92
2023-02-06T19:48:30.770Z,218.25
2023-02-06T19:49:30.769Z,220.06
2023-02-06T19:50:30.666Z,217.55
2023-02-06T19:51:30.665Z,218.16
2023-02-06T19:52:30.590Z,217.62
2023-02-06T19:53:30.535Z,217.25
2023-02-06T19:54:30.547Z,217.07
2023-02-06T19:55:30.488Z,217.11
2023-02-06T19:56:30.410Z,217.46
2023-02-06T19:57:30.392Z,217.74
2023-02-06T19:58:30.341Z,217.69
2023-02-06T19:59:30.320Z,220.15
2023-02-06T20:00:30.248Z,218.90
2023-02-06T20:01:30.193Z,216.93
2023-02-06T20:02:30.155Z,216.57
2023-02-06T20:03:30.324Z,215.71
2023-02-06T20:04:30.098Z,218.28
2023-02-06T20:05:30.559Z,216.29
2023-02-06T20:06:30.552Z,217.30
2023-02-06T20:07:30.580Z,218.62
2023-02-06T20:08:30.462Z,218.46
2023-02-06T20:09:29.873Z,219.62
2023-02-06T20:10:30.451Z,218.04
2023-02-06T20:11:30.476Z,216.36
2023-02-06T20:12:30.383Z,216.46
2023-02-06T20:13:30.240Z,216.62
2023-02-06T20:14:29.659Z,215.48
2023-02-06T20:15:29.636Z,215.58
2023-02-06T20:16:29.681Z,215.47
2023-02-06T20:17:29.565Z,214.02
2023-02-06T20:18:29.504Z,214.33
2023-02-06T20:19:29.453Z,217.50
2023-02-06T20:20:29.428Z,217.25
2023-02-06T20:21:30.065Z,216.05
2023-02-06T20:22:29.337Z,216.45
2023-02-06T20:23:29.308Z,217.85
2023-02-06T20:24:29.264Z,216.11
2023-02-06T20:25:29.267Z,216.80
2023-02-06T20:26:29.214Z,215.76
2023-02-06T20:27:29.156Z,217.92
2023-02-06T20:28:29.100Z,214.94
2023-02-06T20:29:29.172Z,214.54
2023-02-06T20:30:29.059Z,213.66
2023-02-06T20:31:29.136Z,215.22
2023-02-06T20:32:28.988Z,215.57
2023-02-06T20:33:28.939Z,215.59
2023-02-06T20:34:28.918Z,216.63
2023-02-06T20:35:28.869Z,214.90
2023-02-06T20:36:28.841Z,213.59
2023-02-06T20:37:29.866Z,214.95
2023-02-06T20:38:28.754Z,216.45
2023-02-06T20:39:28.848Z,215.32
2023-02-06T20:40:28.695Z,215.68
2023-02-06T20:41:28.724Z,216.29
2023-02-06T20:42:28.583Z,217.72
2023-02-06T20:43:28.720Z,214.44
2023-02-06T20:44:29.735Z,213.67
2023-02-06T20:45:28.499Z,213.62
2023-02-06T20:46:28.487Z,215.63
2023-02-06T20:47:28.406Z,214.67
2023-02-06T20:48:28.366Z,213.89
2023-02-06T20:49:28.829Z,214.89
2023-02-06T20:50:29.654Z,212.81
2023-02-06T20:51:28.648Z,214.67
2023-02-06T20:52:28.265Z,214.44
2023-02-06T20:53:28.222Z,214.04
2023-02-06T20:54:28.258Z,212.88
2023-02-06T20:55:28.164Z,215.23
2023-02-06T20:56:28.317Z,216.63
2023-02-06T20:57:28.167Z,213.44
2023-02-06T20:58:28.100Z,215.05
2023-02-06T20:59:28.058Z,211.89
2023-02-06T21:00:28.156Z,214.07
2023-02-06T21:01:28.254Z,214.19
2023-02-06T21:02:28.014Z,211.11
2023-02-06T21:03:27.986Z,213.37
2023-02-06T21:04:27.991Z,213.55
2023-02-06T21:05:27.679Z,215.31
2023-02-06T21:06:27.988Z,215.04
2023-02-06T21:07:27.943Z,212.77
2023-02-06T21:08:27.944Z,212.75
2023-02-06T21:09:28.006Z,212.81
2023-02-06T21:10:27.911Z,213.56
2023-02-06T21:11:27.896Z,214.31
2023-02-06T21:12:27.439Z,211.52